Portada
METAR-TAF:

METAR-TAF

Aeroports :

Presidente Prudente, São Paulo, Brasil

latitud: 22-07S, longitud: 051-23W, altitud: 436 m

Observació

L'informe es va fer fa 21 minuts, a les 13:00 UTC
Vent 11 kt del Nord-Est
Temperatura 21°C
Humitat 43%
Pressió 1020 hPa
Visibilitat 10 km o més
sense núvols per sota de 1500 mi sense presència de cumulonimbus.

METAR: SBDN 211300Z 05011KT CAVOK 21/08 Q1020

Hora: 10:21 (13:21 UTC)

Pronòstic

L'informe es va fer fa 3 hores i 51 minuts, a les 09:30 UTC
Pronòstic vàlid del 21 a les 12 UTC al 21 a les 24 UTC
Vent 8 kt del Est/Nord-Est
Visibilitat 10 km o més
sense núvols per sota de 1500 mi sense presència de cumulonimbus.

TAF: SBDN 210930Z 2112/2124 06008KT CAVOK TN19/2112Z TX28/2118Z RMK PEG

Observacions i pronòstics meteorològics de més de 4000 aeroports (METAR i TAF).

Les estacions disponibles són els punts grocs i vermells al mapa.

Posi el ratolí al punt desitjat per veure el nom de l'estació.

Feu clic per veure les observacions i els pronòstics meteorològics.

Per canviar el mapa: feu clic els botons verds amb una creu de color negre per apropar; al botó verd amb un guió per allunyar la imatge; o en les fletxes verdes per a mapes adjacents.


METAR-TAF: